sensor_id;sensor_type;location;lat;lon;timestamp;P1;durP1;ratioP1;P2;durP2;ratioP2
49488;SDS011;35382;51.484;11.476;2022-09-12T00:00:42;196.65;;;188.68;;
49488;SDS011;35382;51.484;11.476;2022-09-12T00:02:23;197.75;;;189.70;;
49488;SDS011;35382;51.484;11.476;2022-09-12T00:04:04;191.70;;;183.82;;
49488;SDS011;35382;51.484;11.476;2022-09-12T00:05:46;172.73;;;165.52;;
49488;SDS011;35382;51.484;11.476;2022-09-12T00:07:27;164.35;;;157.50;;
49488;SDS011;35382;51.484;11.476;2022-09-12T00:09:09;175.05;;;167.68;;
49488;SDS011;35382;51.484;11.476;2022-09-12T00:10:52;170.93;;;163.45;;
49488;SDS011;35382;51.484;11.476;2022-09-12T00:12:33;175.45;;;167.93;;
49488;SDS011;35382;51.484;11.476;2022-09-12T00:14:15;191.90;;;183.77;;
49488;SDS011;35382;51.484;11.476;2022-09-12T00:15:57;201.15;;;192.60;;
49488;SDS011;35382;51.484;11.476;2022-09-12T00:17:38;205.80;;;197.02;;
49488;SDS011;35382;51.484;11.476;2022-09-12T00:19:19;249.65;;;239.15;;
49488;SDS011;35382;51.484;11.476;2022-09-12T00:21:01;240.95;;;230.40;;
49488;SDS011;35382;51.484;11.476;2022-09-12T00:22:44;248.68;;;238.27;;
49488;SDS011;35382;51.484;11.476;2022-09-12T00:24:25;231.32;;;221.68;;
49488;SDS011;35382;51.484;11.476;2022-09-12T00:26:06;225.82;;;216.55;;
49488;SDS011;35382;51.484;11.476;2022-09-12T00:27:47;212.45;;;203.45;;
49488;SDS011;35382;51.484;11.476;2022-09-12T00:29:28;217.02;;;207.85;;
49488;SDS011;35382;51.484;11.476;2022-09-12T00:31:10;223.50;;;214.02;;
49488;SDS011;35382;51.484;11.476;2022-09-12T00:32:53;215.80;;;205.68;;
49488;SDS011;35382;51.484;11.476;2022-09-12T00:34:35;207.48;;;198.85;;
49488;SDS011;35382;51.484;11.476;2022-09-12T00:36:17;215.82;;;206.88;;
49488;SDS011;35382;51.484;11.476;2022-09-12T00:37:59;207.95;;;199.07;;
49488;SDS011;35382;51.484;11.476;2022-09-12T00:39:40;178.55;;;170.85;;
49488;SDS011;35382;51.484;11.476;2022-09-12T00:45:25;183.50;;;175.55;;
49488;SDS011;35382;51.484;11.476;2022-09-12T00:47:21;192.35;;;184.13;;
49488;SDS011;35382;51.484;11.476;2022-09-12T00:49:07;181.35;;;173.13;;
49488;SDS011;35382;51.484;11.476;2022-09-12T00:50:55;195.10;;;186.95;;
49488;SDS011;35382;51.484;11.476;2022-09-12T00:52:38;193.32;;;185.07;;
49488;SDS011;35382;51.484;11.476;2022-09-12T00:54:31;200.48;;;191.93;;
49488;SDS011;35382;51.484;11.476;2022-09-12T00:56:16;207.80;;;198.55;;
49488;SDS011;35382;51.484;11.476;2022-09-12T00:58:01;209.50;;;200.52;;
49488;SDS011;35382;51.484;11.476;2022-09-12T00:59:50;170.43;;;162.88;;
49488;SDS011;35382;51.484;11.476;2022-09-12T01:01:35;171.35;;;163.52;;
49488;SDS011;35382;51.484;11.476;2022-09-12T01:03:17;178.15;;;170.25;;
49488;SDS011;35382;51.484;11.476;2022-09-12T01:05:00;188.05;;;179.63;;
49488;SDS011;35382;51.484;11.476;2022-09-12T01:06:42;187.13;;;178.63;;
49488;SDS011;35382;51.484;11.476;2022-09-12T01:08:24;215.65;;;206.02;;
49488;SDS011;35382;51.484;11.476;2022-09-12T01:10:07;240.93;;;230.48;;
49488;SDS011;35382;51.484;11.476;2022-09-12T01:11:49;241.18;;;230.98;;
49488;SDS011;35382;51.484;11.476;2022-09-12T01:13:33;251.18;;;240.27;;
49488;SDS011;35382;51.484;11.476;2022-09-12T01:15:15;237.73;;;227.38;;
49488;SDS011;35382;51.484;11.476;2022-09-12T01:16:56;235.90;;;225.82;;
49488;SDS011;35382;51.484;11.476;2022-09-12T01:26:14;206.02;;;197.07;;
49488;SDS011;35382;51.484;11.476;2022-09-12T01:34:24;229.55;;;219.38;;
49488;SDS011;35382;51.484;11.476;2022-09-12T01:36:51;264.05;;;252.27;;
49488;SDS011;35382;51.484;11.476;2022-09-12T01:40:19;323.48;;;309.10;;
49488;SDS011;35382;51.484;11.476;2022-09-12T01:42:19;338.70;;;323.85;;
49488;SDS011;35382;51.484;11.476;2022-09-12T01:44:17;306.70;;;293.38;;
49488;SDS011;35382;51.484;11.476;2022-09-12T01:48:25;282.13;;;269.73;;
49488;SDS011;35382;51.484;11.476;2022-09-12T01:52:12;224.73;;;214.77;;
49488;SDS011;35382;51.484;11.476;2022-09-12T01:55:50;222.27;;;212.43;;
49488;SDS011;35382;51.484;11.476;2022-09-12T01:57:37;274.05;;;262.45;;
49488;SDS011;35382;51.484;11.476;2022-09-12T01:59:30;337.00;;;322.02;;
49488;SDS011;35382;51.484;11.476;2022-09-12T02:01:16;324.15;;;310.00;;
49488;SDS011;35382;51.484;11.476;2022-09-12T02:03:02;328.65;;;314.10;;
49488;SDS011;35382;51.484;11.476;2022-09-12T02:04:51;302.20;;;288.77;;
49488;SDS011;35382;51.484;11.476;2022-09-12T02:06:39;316.60;;;302.73;;
49488;SDS011;35382;51.484;11.476;2022-09-12T02:08:40;281.33;;;269.33;;
49488;SDS011;35382;51.484;11.476;2022-09-12T02:10:51;213.82;;;204.38;;
49488;SDS011;35382;51.484;11.476;2022-09-12T02:12:40;203.63;;;194.48;;
49488;SDS011;35382;51.484;11.476;2022-09-12T02:14:30;212.15;;;202.48;;
49488;SDS011;35382;51.484;11.476;2022-09-12T02:16:30;247.50;;;236.25;;
49488;SDS011;35382;51.484;11.476;2022-09-12T02:18:15;298.02;;;284.42;;
49488;SDS011;35382;51.484;11.476;2022-09-12T02:20:00;303.55;;;290.20;;
49488;SDS011;35382;51.484;11.476;2022-09-12T02:21:49;301.48;;;288.00;;
49488;SDS011;35382;51.484;11.476;2022-09-12T02:23:33;339.95;;;324.70;;
49488;SDS011;35382;51.484;11.476;2022-09-12T02:25:18;326.25;;;311.70;;
49488;SDS011;35382;51.484;11.476;2022-09-12T02:27:20;315.85;;;302.17;;
49488;SDS011;35382;51.484;11.476;2022-09-12T02:29:05;286.08;;;273.88;;
49488;SDS011;35382;51.484;11.476;2022-09-12T02:30:50;269.85;;;258.15;;
49488;SDS011;35382;51.484;11.476;2022-09-12T02:32:52;257.60;;;246.57;;
49488;SDS011;35382;51.484;11.476;2022-09-12T02:34:49;260.23;;;248.98;;
49488;SDS011;35382;51.484;11.476;2022-09-12T02:36:45;287.17;;;274.60;;
49488;SDS011;35382;51.484;11.476;2022-09-12T02:38:36;292.35;;;279.70;;
49488;SDS011;35382;51.484;11.476;2022-09-12T02:40:26;302.40;;;289.40;;
49488;SDS011;35382;51.484;11.476;2022-09-12T02:42:08;333.70;;;319.52;;
49488;SDS011;35382;51.484;11.476;2022-09-12T02:43:49;304.08;;;291.20;;
49488;SDS011;35382;51.484;11.476;2022-09-12T02:45:32;314.08;;;300.85;;
49488;SDS011;35382;51.484;11.476;2022-09-12T02:47:18;329.98;;;315.75;;
49488;SDS011;35382;51.484;11.476;2022-09-12T02:49:04;332.35;;;317.73;;
49488;SDS011;35382;51.484;11.476;2022-09-12T02:50:45;320.90;;;306.73;;
49488;SDS011;35382;51.484;11.476;2022-09-12T02:52:26;290.50;;;278.10;;
49488;SDS011;35382;51.484;11.476;2022-09-12T02:54:08;277.05;;;264.80;;
49488;SDS011;35382;51.484;11.476;2022-09-12T02:55:51;288.35;;;275.95;;
49488;SDS011;35382;51.484;11.476;2022-09-12T02:57:32;304.98;;;292.02;;
49488;SDS011;35382;51.484;11.476;2022-09-12T02:59:14;297.25;;;284.27;;
49488;SDS011;35382;51.484;11.476;2022-09-12T03:01:11;292.73;;;280.08;;
49488;SDS011;35382;51.484;11.476;2022-09-12T03:04:57;253.70;;;242.30;;
49488;SDS011;35382;51.484;11.476;2022-09-12T03:07:00;259.38;;;248.13;;
49488;SDS011;35382;51.484;11.476;2022-09-12T03:11:11;274.00;;;262.08;;
49488;SDS011;35382;51.484;11.476;2022-09-12T03:13:08;288.83;;;276.33;;
49488;SDS011;35382;51.484;11.476;2022-09-12T03:15:11;293.45;;;280.58;;
49488;SDS011;35382;51.484;11.476;2022-09-12T03:19:13;302.27;;;289.25;;
49488;SDS011;35382;51.484;11.476;2022-09-12T03:21:07;301.35;;;288.40;;
49488;SDS011;35382;51.484;11.476;2022-09-12T03:22:53;312.38;;;298.90;;
49488;SDS011;35382;51.484;11.476;2022-09-12T03:24:38;275.05;;;263.27;;
49488;SDS011;35382;51.484;11.476;2022-09-12T03:28:38;260.63;;;248.95;;
49488;SDS011;35382;51.484;11.476;2022-09-12T03:30:21;283.42;;;271.48;;
49488;SDS011;35382;51.484;11.476;2022-09-12T03:32:02;299.52;;;286.50;;
49488;SDS011;35382;51.484;11.476;2022-09-12T03:33:43;305.27;;;292.23;;
49488;SDS011;35382;51.484;11.476;2022-09-12T03:35:25;286.08;;;273.83;;
49488;SDS011;35382;51.484;11.476;2022-09-12T03:37:06;307.42;;;293.98;;
49488;SDS011;35382;51.484;11.476;2022-09-12T03:38:47;299.92;;;286.98;;
49488;SDS011;35382;51.484;11.476;2022-09-12T03:40:28;304.02;;;290.63;;
49488;SDS011;35382;51.484;11.476;2022-09-12T03:42:09;313.58;;;299.17;;
49488;SDS011;35382;51.484;11.476;2022-09-12T03:43:49;299.88;;;286.67;;
49488;SDS011;35382;51.484;11.476;2022-09-12T03:45:31;302.05;;;287.98;;
49488;SDS011;35382;51.484;11.476;2022-09-12T03:47:11;319.63;;;305.15;;
49488;SDS011;35382;51.484;11.476;2022-09-12T03:48:52;309.55;;;294.98;;
49488;SDS011;35382;51.484;11.476;2022-09-12T03:50:33;322.35;;;307.05;;
49488;SDS011;35382;51.484;11.476;2022-09-12T03:52:14;342.38;;;326.02;;
49488;SDS011;35382;51.484;11.476;2022-09-12T03:53:55;342.35;;;326.23;;
49488;SDS011;35382;51.484;11.476;2022-09-12T03:55:37;349.60;;;333.77;;
49488;SDS011;35382;51.484;11.476;2022-09-12T03:57:18;330.80;;;315.10;;
49488;SDS011;35382;51.484;11.476;2022-09-12T03:58:59;363.48;;;346.05;;
49488;SDS011;35382;51.484;11.476;2022-09-12T04:00:40;356.52;;;332.38;;
49488;SDS011;35382;51.484;11.476;2022-09-12T04:02:22;347.40;;;329.55;;
49488;SDS011;35382;51.484;11.476;2022-09-12T04:04:03;357.52;;;340.65;;
49488;SDS011;35382;51.484;11.476;2022-09-12T04:05:44;354.25;;;336.08;;
49488;SDS011;35382;51.484;11.476;2022-09-12T04:07:26;344.35;;;328.20;;
49488;SDS011;35382;51.484;11.476;2022-09-12T04:09:07;337.63;;;321.45;;
49488;SDS011;35382;51.484;11.476;2022-09-12T04:10:48;337.48;;;320.70;;
49488;SDS011;35382;51.484;11.476;2022-09-12T04:12:29;340.45;;;322.33;;
49488;SDS011;35382;51.484;11.476;2022-09-12T04:14:10;335.05;;;317.05;;
49488;SDS011;35382;51.484;11.476;2022-09-12T04:15:54;343.13;;;324.77;;
49488;SDS011;35382;51.484;11.476;2022-09-12T04:17:36;343.95;;;325.73;;
49488;SDS011;35382;51.484;11.476;2022-09-12T04:19:17;334.33;;;316.98;;
49488;SDS011;35382;51.484;11.476;2022-09-12T04:21:02;338.77;;;321.13;;
49488;SDS011;35382;51.484;11.476;2022-09-12T04:22:44;337.65;;;318.30;;
49488;SDS011;35382;51.484;11.476;2022-09-12T04:24:25;329.60;;;310.67;;
49488;SDS011;35382;51.484;11.476;2022-09-12T04:26:06;328.92;;;311.23;;
49488;SDS011;35382;51.484;11.476;2022-09-12T04:27:47;306.52;;;291.05;;
49488;SDS011;35382;51.484;11.476;2022-09-12T04:29:28;313.45;;;294.90;;
49488;SDS011;35382;51.484;11.476;2022-09-12T04:31:13;330.45;;;313.05;;
49488;SDS011;35382;51.484;11.476;2022-09-12T04:32:57;332.08;;;314.85;;
49488;SDS011;35382;51.484;11.476;2022-09-12T04:34:41;302.38;;;283.27;;
49488;SDS011;35382;51.484;11.476;2022-09-12T04:36:22;311.98;;;292.98;;
49488;SDS011;35382;51.484;11.476;2022-09-12T04:38:04;309.23;;;293.00;;
49488;SDS011;35382;51.484;11.476;2022-09-12T04:39:45;297.13;;;281.50;;
49488;SDS011;35382;51.484;11.476;2022-09-12T04:41:32;272.73;;;257.25;;
49488;SDS011;35382;51.484;11.476;2022-09-12T04:43:14;260.67;;;248.63;;
49488;SDS011;35382;51.484;11.476;2022-09-12T04:44:55;246.68;;;235.48;;
49488;SDS011;35382;51.484;11.476;2022-09-12T04:46:37;256.73;;;245.95;;
49488;SDS011;35382;51.484;11.476;2022-09-12T04:48:19;254.50;;;243.65;;
49488;SDS011;35382;51.484;11.476;2022-09-12T04:50:00;270.25;;;258.95;;
49488;SDS011;35382;51.484;11.476;2022-09-12T04:51:41;254.70;;;244.02;;
49488;SDS011;35382;51.484;11.476;2022-09-12T04:53:22;237.07;;;226.75;;
49488;SDS011;35382;51.484;11.476;2022-09-12T04:55:03;223.98;;;214.50;;
49488;SDS011;35382;51.484;11.476;2022-09-12T04:56:45;231.50;;;221.77;;
49488;SDS011;35382;51.484;11.476;2022-09-12T04:58:28;216.38;;;207.25;;
49488;SDS011;35382;51.484;11.476;2022-09-12T05:00:11;245.23;;;234.77;;
49488;SDS011;35382;51.484;11.476;2022-09-12T05:01:53;225.30;;;215.43;;
49488;SDS011;35382;51.484;11.476;2022-09-12T05:03:34;238.80;;;228.60;;
49488;SDS011;35382;51.484;11.476;2022-09-12T05:05:15;242.48;;;232.25;;
49488;SDS011;35382;51.484;11.476;2022-09-12T05:06:56;232.73;;;222.73;;
49488;SDS011;35382;51.484;11.476;2022-09-12T05:08:38;236.27;;;226.18;;
49488;SDS011;35382;51.484;11.476;2022-09-12T05:10:19;275.27;;;263.50;;
49488;SDS011;35382;51.484;11.476;2022-09-12T05:12:00;262.60;;;251.32;;
49488;SDS011;35382;51.484;11.476;2022-09-12T05:13:41;264.63;;;253.63;;
49488;SDS011;35382;51.484;11.476;2022-09-12T05:15:22;250.27;;;239.65;;
49488;SDS011;35382;51.484;11.476;2022-09-12T05:17:04;272.08;;;260.55;;
49488;SDS011;35382;51.484;11.476;2022-09-12T05:18:45;301.98;;;289.08;;
49488;SDS011;35382;51.484;11.476;2022-09-12T05:20:27;278.45;;;266.77;;
49488;SDS011;35382;51.484;11.476;2022-09-12T05:22:08;281.17;;;269.50;;
49488;SDS011;35382;51.484;11.476;2022-09-12T05:23:50;288.92;;;276.80;;
49488;SDS011;35382;51.484;11.476;2022-09-12T05:25:31;269.08;;;257.80;;
49488;SDS011;35382;51.484;11.476;2022-09-12T05:27:13;272.17;;;260.60;;
49488;SDS011;35382;51.484;11.476;2022-09-12T05:28:54;279.40;;;268.02;;
49488;SDS011;35382;51.484;11.476;2022-09-12T05:30:35;294.60;;;282.20;;
49488;SDS011;35382;51.484;11.476;2022-09-12T05:32:16;278.83;;;267.20;;
49488;SDS011;35382;51.484;11.476;2022-09-12T05:33:57;227.43;;;218.13;;
49488;SDS011;35382;51.484;11.476;2022-09-12T05:35:38;205.93;;;197.45;;
49488;SDS011;35382;51.484;11.476;2022-09-12T05:37:19;211.60;;;202.73;;
49488;SDS011;35382;51.484;11.476;2022-09-12T05:39:00;201.77;;;192.80;;
49488;SDS011;35382;51.484;11.476;2022-09-12T05:40:43;191.98;;;183.60;;
49488;SDS011;35382;51.484;11.476;2022-09-12T05:42:24;189.57;;;181.45;;
49488;SDS011;35382;51.484;11.476;2022-09-12T05:44:05;181.60;;;173.55;;
49488;SDS011;35382;51.484;11.476;2022-09-12T05:45:50;217.52;;;208.57;;
49488;SDS011;35382;51.484;11.476;2022-09-12T05:47:31;229.70;;;220.40;;
49488;SDS011;35382;51.484;11.476;2022-09-12T05:49:12;253.25;;;242.73;;
49488;SDS011;35382;51.484;11.476;2022-09-12T05:51:00;299.10;;;286.65;;
49488;SDS011;35382;51.484;11.476;2022-09-12T05:52:42;292.80;;;280.52;;
49488;SDS011;35382;51.484;11.476;2022-09-12T05:54:23;280.67;;;268.92;;
49488;SDS011;35382;51.484;11.476;2022-09-12T05:56:11;298.70;;;286.05;;
49488;SDS011;35382;51.484;11.476;2022-09-12T05:57:53;290.05;;;275.33;;
49488;SDS011;35382;51.484;11.476;2022-09-12T05:59:34;278.10;;;265.20;;
49488;SDS011;35382;51.484;11.476;2022-09-12T06:01:16;289.33;;;274.42;;
49488;SDS011;35382;51.484;11.476;2022-09-12T06:02:57;289.58;;;276.63;;
49488;SDS011;35382;51.484;11.476;2022-09-12T06:04:38;278.05;;;265.05;;
49488;SDS011;35382;51.484;11.476;2022-09-12T06:06:21;294.42;;;278.92;;
49488;SDS011;35382;51.484;11.476;2022-09-12T06:08:03;292.52;;;276.02;;
49488;SDS011;35382;51.484;11.476;2022-09-12T06:09:44;338.25;;;321.02;;
49488;SDS011;35382;51.484;11.476;2022-09-12T06:11:27;345.23;;;329.00;;
49488;SDS011;35382;51.484;11.476;2022-09-12T06:13:09;319.05;;;299.52;;
49488;SDS011;35382;51.484;11.476;2022-09-12T06:14:50;334.38;;;319.15;;
49488;SDS011;35382;51.484;11.476;2022-09-12T06:16:32;354.42;;;336.88;;
49488;SDS011;35382;51.484;11.476;2022-09-12T06:18:13;323.88;;;307.10;;
49488;SDS011;35382;51.484;11.476;2022-09-12T06:19:54;328.75;;;312.13;;
49488;SDS011;35382;51.484;11.476;2022-09-12T06:21:36;316.67;;;302.80;;
49488;SDS011;35382;51.484;11.476;2022-09-12T06:23:19;284.30;;;268.17;;
49488;SDS011;35382;51.484;11.476;2022-09-12T06:25:00;288.63;;;274.55;;
49488;SDS011;35382;51.484;11.476;2022-09-12T06:26:41;297.80;;;284.27;;
49488;SDS011;35382;51.484;11.476;2022-09-12T06:28:23;274.38;;;262.50;;
49488;SDS011;35382;51.484;11.476;2022-09-12T06:30:05;268.48;;;256.13;;
49488;SDS011;35382;51.484;11.476;2022-09-12T06:31:46;242.52;;;230.00;;
49488;SDS011;35382;51.484;11.476;2022-09-12T06:33:27;229.43;;;218.27;;
49488;SDS011;35382;51.484;11.476;2022-09-12T06:35:08;236.15;;;226.55;;
49488;SDS011;35382;51.484;11.476;2022-09-12T06:36:49;202.73;;;192.95;;
49488;SDS011;35382;51.484;11.476;2022-09-12T06:38:30;226.50;;;216.35;;
49488;SDS011;35382;51.484;11.476;2022-09-12T06:40:12;226.68;;;216.80;;
49488;SDS011;35382;51.484;11.476;2022-09-12T06:41:53;183.50;;;174.75;;
49488;SDS011;35382;51.484;11.476;2022-09-12T06:43:46;159.88;;;151.88;;
49488;SDS011;35382;51.484;11.476;2022-09-12T06:45:27;158.38;;;151.57;;
49488;SDS011;35382;51.484;11.476;2022-09-12T06:47:08;165.40;;;157.00;;
49488;SDS011;35382;51.484;11.476;2022-09-12T06:48:49;174.93;;;166.00;;
49488;SDS011;35382;51.484;11.476;2022-09-12T06:50:30;186.52;;;174.35;;
49488;SDS011;35382;51.484;11.476;2022-09-12T06:52:11;191.18;;;181.05;;
49488;SDS011;35382;51.484;11.476;2022-09-12T06:53:56;235.02;;;225.10;;
49488;SDS011;35382;51.484;11.476;2022-09-12T06:55:37;242.98;;;232.30;;
49488;SDS011;35382;51.484;11.476;2022-09-12T06:57:18;250.77;;;239.75;;
49488;SDS011;35382;51.484;11.476;2022-09-12T06:58:59;252.82;;;242.13;;
49488;SDS011;35382;51.484;11.476;2022-09-12T07:00:39;264.90;;;253.85;;
49488;SDS011;35382;51.484;11.476;2022-09-12T07:02:20;246.95;;;236.48;;
49488;SDS011;35382;51.484;11.476;2022-09-12T07:04:02;219.98;;;210.38;;
49488;SDS011;35382;51.484;11.476;2022-09-12T07:05:44;192.23;;;183.48;;
49488;SDS011;35382;51.484;11.476;2022-09-12T07:07:25;153.23;;;146.65;;
49488;SDS011;35382;51.484;11.476;2022-09-12T07:09:07;198.50;;;190.43;;
49488;SDS011;35382;51.484;11.476;2022-09-12T07:10:50;140.43;;;133.15;;
49488;SDS011;35382;51.484;11.476;2022-09-12T07:12:31;143.18;;;137.23;;
49488;SDS011;35382;51.484;11.476;2022-09-12T07:14:12;135.07;;;129.25;;
49488;SDS011;35382;51.484;11.476;2022-09-12T07:15:54;142.18;;;135.60;;
49488;SDS011;35382;51.484;11.476;2022-09-12T07:17:35;135.98;;;129.45;;
49488;SDS011;35382;51.484;11.476;2022-09-12T07:19:16;125.57;;;119.43;;
49488;SDS011;35382;51.484;11.476;2022-09-12T07:21:04;122.93;;;116.18;;
49488;SDS011;35382;51.484;11.476;2022-09-12T07:22:49;126.25;;;120.45;;
49488;SDS011;35382;51.484;11.476;2022-09-12T07:24:30;121.60;;;113.75;;
49488;SDS011;35382;51.484;11.476;2022-09-12T07:26:11;130.82;;;121.90;;
49488;SDS011;35382;51.484;11.476;2022-09-12T07:27:54;129.77;;;123.18;;
49488;SDS011;35382;51.484;11.476;2022-09-12T07:29:35;137.48;;;131.13;;
49488;SDS011;35382;51.484;11.476;2022-09-12T07:31:16;138.70;;;132.50;;
49488;SDS011;35382;51.484;11.476;2022-09-12T07:33:02;140.07;;;133.93;;
49488;SDS011;35382;51.484;11.476;2022-09-12T07:34:43;147.85;;;141.48;;
49488;SDS011;35382;51.484;11.476;2022-09-12T07:36:24;146.07;;;139.55;;
49488;SDS011;35382;51.484;11.476;2022-09-12T07:38:05;150.25;;;143.77;;
49488;SDS011;35382;51.484;11.476;2022-09-12T07:39:46;156.35;;;149.65;;
49488;SDS011;35382;51.484;11.476;2022-09-12T07:41:29;151.93;;;145.02;;
49488;SDS011;35382;51.484;11.476;2022-09-12T07:43:13;149.98;;;143.10;;
49488;SDS011;35382;51.484;11.476;2022-09-12T07:44:54;142.10;;;135.57;;
49488;SDS011;35382;51.484;11.476;2022-09-12T07:46:35;142.80;;;136.45;;
49488;SDS011;35382;51.484;11.476;2022-09-12T07:48:16;131.88;;;125.25;;
49488;SDS011;35382;51.484;11.476;2022-09-12T07:49:57;139.88;;;133.73;;
49488;SDS011;35382;51.484;11.476;2022-09-12T07:51:38;141.60;;;134.93;;
49488;SDS011;35382;51.484;11.476;2022-09-12T07:53:19;132.23;;;126.30;;
49488;SDS011;35382;51.484;11.476;2022-09-12T07:55:00;128.57;;;122.78;;
49488;SDS011;35382;51.484;11.476;2022-09-12T07:56:42;132.80;;;126.82;;
49488;SDS011;35382;51.484;11.476;2022-09-12T07:58:23;152.10;;;145.23;;
49488;SDS011;35382;51.484;11.476;2022-09-12T08:00:04;140.43;;;134.07;;
49488;SDS011;35382;51.484;11.476;2022-09-12T08:01:52;138.07;;;131.88;;
49488;SDS011;35382;51.484;11.476;2022-09-12T08:03:34;139.20;;;132.75;;
49488;SDS011;35382;51.484;11.476;2022-09-12T08:05:15;133.80;;;127.55;;
49488;SDS011;35382;51.484;11.476;2022-09-12T08:06:56;129.50;;;123.53;;
49488;SDS011;35382;51.484;11.476;2022-09-12T08:08:37;138.50;;;132.35;;
49488;SDS011;35382;51.484;11.476;2022-09-12T08:10:19;127.00;;;121.32;;
49488;SDS011;35382;51.484;11.476;2022-09-12T08:12:00;123.72;;;118.28;;
49488;SDS011;35382;51.484;11.476;2022-09-12T08:13:41;127.03;;;121.32;;
49488;SDS011;35382;51.484;11.476;2022-09-12T08:15:23;127.80;;;122.10;;
49488;SDS011;35382;51.484;11.476;2022-09-12T08:17:04;136.70;;;130.70;;
49488;SDS011;35382;51.484;11.476;2022-09-12T08:18:46;133.95;;;128.02;;
49488;SDS011;35382;51.484;11.476;2022-09-12T08:20:27;145.63;;;139.23;;
49488;SDS011;35382;51.484;11.476;2022-09-12T08:22:10;151.00;;;144.40;;
49488;SDS011;35382;51.484;11.476;2022-09-12T08:23:52;154.13;;;147.60;;
49488;SDS011;35382;51.484;11.476;2022-09-12T08:25:34;152.88;;;146.27;;
49488;SDS011;35382;51.484;11.476;2022-09-12T08:27:15;154.73;;;148.15;;
49488;SDS011;35382;51.484;11.476;2022-09-12T08:28:57;155.20;;;148.65;;
49488;SDS011;35382;51.484;11.476;2022-09-12T08:30:38;155.73;;;149.13;;
49488;SDS011;35382;51.484;11.476;2022-09-12T08:32:19;156.73;;;149.90;;
49488;SDS011;35382;51.484;11.476;2022-09-12T08:34:00;126.35;;;120.90;;
49488;SDS011;35382;51.484;11.476;2022-09-12T08:35:41;125.70;;;120.20;;
49488;SDS011;35382;51.484;11.476;2022-09-12T08:37:21;121.20;;;115.82;;
49488;SDS011;35382;51.484;11.476;2022-09-12T08:39:04;126.53;;;121.05;;
49488;SDS011;35382;51.484;11.476;2022-09-12T08:40:50;139.20;;;132.93;;
49488;SDS011;35382;51.484;11.476;2022-09-12T08:42:45;94.95;;;90.60;;
49488;SDS011;35382;51.484;11.476;2022-09-12T08:44:47;107.45;;;102.68;;
49488;SDS011;35382;51.484;11.476;2022-09-12T08:46:50;95.72;;;91.22;;
49488;SDS011;35382;51.484;11.476;2022-09-12T08:48:58;96.00;;;91.43;;
49488;SDS011;35382;51.484;11.476;2022-09-12T08:50:40;99.40;;;94.82;;
49488;SDS011;35382;51.484;11.476;2022-09-12T08:54:29;81.00;;;77.00;;
49488;SDS011;35382;51.484;11.476;2022-09-12T08:56:11;83.15;;;79.13;;
49488;SDS011;35382;51.484;11.476;2022-09-12T08:57:52;95.68;;;91.28;;
49488;SDS011;35382;51.484;11.476;2022-09-12T08:59:37;66.38;;;63.08;;
49488;SDS011;35382;51.484;11.476;2022-09-12T09:01:30;84.05;;;79.60;;
49488;SDS011;35382;51.484;11.476;2022-09-12T09:03:22;61.20;;;57.90;;
49488;SDS011;35382;51.484;11.476;2022-09-12T09:05:35;58.97;;;55.70;;
49488;SDS011;35382;51.484;11.476;2022-09-12T09:07:38;56.45;;;53.38;;
49488;SDS011;35382;51.484;11.476;2022-09-12T09:09:43;55.47;;;52.50;;
49488;SDS011;35382;51.484;11.476;2022-09-12T09:11:52;58.95;;;55.83;;
49488;SDS011;35382;51.484;11.476;2022-09-12T09:13:48;61.35;;;58.00;;
49488;SDS011;35382;51.484;11.476;2022-09-12T09:16:21;53.25;;;50.42;;
49488;SDS011;35382;51.484;11.476;2022-09-12T09:18:20;53.22;;;50.53;;
49488;SDS011;35382;51.484;11.476;2022-09-12T09:20:11;68.10;;;64.93;;
49488;SDS011;35382;51.484;11.476;2022-09-12T09:23:47;53.22;;;50.42;;
49488;SDS011;35382;51.484;11.476;2022-09-12T09:25:37;40.45;;;38.17;;
49488;SDS011;35382;51.484;11.476;2022-09-12T09:29:32;56.70;;;53.95;;
49488;SDS011;35382;51.484;11.476;2022-09-12T09:31:20;61.20;;;58.03;;
49488;SDS011;35382;51.484;11.476;2022-09-12T09:33:03;47.22;;;44.85;;
49488;SDS011;35382;51.484;11.476;2022-09-12T09:34:49;57.40;;;54.63;;
49488;SDS011;35382;51.484;11.476;2022-09-12T09:36:40;35.65;;;33.75;;
49488;SDS011;35382;51.484;11.476;2022-09-12T09:38:48;41.22;;;38.92;;
49488;SDS011;35382;51.484;11.476;2022-09-12T09:40:38;56.15;;;53.40;;
49488;SDS011;35382;51.484;11.476;2022-09-12T09:44:20;45.97;;;43.67;;
49488;SDS011;35382;51.484;11.476;2022-09-12T09:46:02;37.78;;;35.83;;
49488;SDS011;35382;51.484;11.476;2022-09-12T09:49:43;38.47;;;36.58;;
49488;SDS011;35382;51.484;11.476;2022-09-12T09:51:31;31.90;;;30.20;;
49488;SDS011;35382;51.484;11.476;2022-09-12T09:53:24;23.23;;;22.02;;
49488;SDS011;35382;51.484;11.476;2022-09-12T09:55:15;28.55;;;27.17;;
49488;SDS011;35382;51.484;11.476;2022-09-12T09:57:00;24.52;;;23.33;;
49488;SDS011;35382;51.484;11.476;2022-09-12T09:58:41;15.80;;;14.85;;
49488;SDS011;35382;51.484;11.476;2022-09-12T10:00:23;17.70;;;16.80;;
49488;SDS011;35382;51.484;11.476;2022-09-12T10:03:53;19.75;;;18.55;;
49488;SDS011;35382;51.484;11.476;2022-09-12T10:05:46;21.33;;;20.23;;
49488;SDS011;35382;51.484;11.476;2022-09-12T10:07:29;18.70;;;17.60;;
49488;SDS011;35382;51.484;11.476;2022-09-12T10:12:45;14.50;;;13.70;;
49488;SDS011;35382;51.484;11.476;2022-09-12T10:14:37;16.30;;;15.35;;
49488;SDS011;35382;51.484;11.476;2022-09-12T10:16:21;16.75;;;15.75;;
49488;SDS011;35382;51.484;11.476;2022-09-12T10:18:02;14.88;;;13.95;;
49488;SDS011;35382;51.484;11.476;2022-09-12T10:19:43;11.85;;;11.15;;
49488;SDS011;35382;51.484;11.476;2022-09-12T10:24:58;14.23;;;13.32;;
49488;SDS011;35382;51.484;11.476;2022-09-12T10:26:40;16.73;;;15.82;;
49488;SDS011;35382;51.484;11.476;2022-09-12T10:28:24;16.30;;;15.38;;
49488;SDS011;35382;51.484;11.476;2022-09-12T10:30:16;14.07;;;13.20;;
49488;SDS011;35382;51.484;11.476;2022-09-12T10:32:03;14.65;;;13.55;;
49488;SDS011;35382;51.484;11.476;2022-09-12T10:33:47;12.88;;;11.88;;
49488;SDS011;35382;51.484;11.476;2022-09-12T10:35:41;11.48;;;10.77;;
49488;SDS011;35382;51.484;11.476;2022-09-12T10:37:31;9.48;;;8.85;;
49488;SDS011;35382;51.484;11.476;2022-09-12T10:39:16;10.32;;;9.52;;
49488;SDS011;35382;51.484;11.476;2022-09-12T10:41:05;11.23;;;10.32;;
49488;SDS011;35382;51.484;11.476;2022-09-12T10:42:53;10.63;;;9.93;;